createdAt,value
2023-05-10T00:02:24.678Z,5.40
2023-05-10T00:05:52.520Z,5.00
2023-05-10T00:09:17.879Z,4.40
2023-05-10T00:11:58.962Z,4.40
2023-05-10T00:15:30.908Z,5.50
2023-05-10T00:19:15.084Z,5.50
2023-05-10T00:23:01.714Z,5.20
2023-05-10T00:26:39.244Z,5.70
2023-05-10T00:29:34.948Z,5.30
2023-05-10T00:33:21.375Z,5.80
2023-05-10T00:36:36.859Z,5.60
2023-05-10T00:40:23.850Z,6.00
2023-05-10T00:43:53.746Z,5.70
2023-05-10T00:46:56.103Z,6.00
2023-05-10T00:50:00.964Z,6.20
2023-05-10T00:53:08.551Z,6.40
2023-05-10T00:56:14.536Z,6.40
2023-05-10T00:59:39.556Z,5.90
2023-05-10T01:03:02.532Z,6.20
2023-05-10T01:06:50.308Z,6.40
2023-05-10T01:10:20.636Z,6.00
2023-05-10T01:13:55.469Z,6.70
2023-05-10T01:17:21.296Z,7.40
2023-05-10T01:20:39.676Z,7.00
2023-05-10T01:24:12.583Z,7.80
2023-05-10T01:27:58.662Z,7.70
2023-05-10T01:31:31.927Z,7.60
2023-05-10T01:34:49.361Z,7.80
2023-05-10T01:38:57.435Z,8.60
2023-05-10T01:42:17.386Z,7.60
2023-05-10T01:45:59.812Z,7.70
2023-05-10T01:49:34.382Z,7.30
2023-05-10T01:53:07.563Z,7.70
2023-05-10T01:56:55.324Z,8.00
2023-05-10T02:00:33.979Z,8.30
2023-05-10T02:04:24.444Z,8.90
2023-05-10T02:06:57.931Z,9.10
2023-05-10T02:10:18.734Z,8.50
2023-05-10T02:13:12.008Z,8.40
2023-05-10T02:16:15.252Z,8.30
2023-05-10T02:19:52.684Z,7.50
2023-05-10T02:23:22.814Z,7.50
2023-05-10T02:26:18.093Z,7.30
2023-05-10T02:29:19.545Z,7.20
2023-05-10T02:32:20.022Z,7.30
2023-05-10T02:35:17.077Z,7.50
2023-05-10T02:38:09.126Z,7.40
2023-05-10T02:41:07.692Z,8.30
2023-05-10T02:43:57.036Z,7.90
2023-05-10T02:47:14.480Z,8.50
2023-05-10T02:49:47.651Z,7.60
2023-05-10T02:53:12.458Z,7.10
2023-05-10T02:56:04.123Z,8.10
2023-05-10T02:59:07.387Z,7.60
2023-05-10T03:02:28.356Z,8.10
2023-05-10T03:05:51.518Z,8.60
2023-05-10T03:09:12.535Z,8.90
2023-05-10T03:13:15.285Z,8.30
2023-05-10T03:16:58.417Z,9.10
2023-05-10T03:20:32.591Z,8.00
2023-05-10T03:23:23.887Z,8.00
2023-05-10T03:26:59.312Z,7.60
2023-05-10T03:29:56.666Z,8.10
2023-05-10T03:33:32.153Z,8.10
2023-05-10T03:37:17.261Z,9.10
2023-05-10T03:40:39.269Z,8.40
2023-05-10T03:44:18.876Z,8.90
2023-05-10T03:47:49.603Z,8.20
2023-05-10T03:51:28.259Z,8.20
2023-05-10T03:55:08.545Z,7.90
2023-05-10T03:58:56.083Z,7.80
2023-05-10T04:02:33.468Z,7.10
2023-05-10T04:06:21.148Z,7.10
2023-05-10T04:09:37.492Z,7.00
2023-05-10T04:12:27.321Z,5.80
2023-05-10T04:15:13.268Z,7.60
2023-05-10T04:18:44.067Z,7.40
2023-05-10T04:21:45.898Z,7.10
2023-05-10T04:25:25.331Z,7.30
2023-05-10T04:28:30.326Z,6.80
2023-05-10T04:31:50.380Z,6.20
2023-05-10T04:35:10.521Z,6.50
2023-05-10T04:38:48.637Z,6.60
2023-05-10T04:41:49.595Z,5.80
2023-05-10T04:45:17.298Z,6.50
2023-05-10T04:48:25.756Z,7.20
2023-05-10T04:51:06.973Z,7.10
2023-05-10T04:54:07.866Z,7.50
2023-05-10T04:57:08.443Z,7.50
2023-05-10T05:00:44.417Z,7.10
2023-05-10T05:04:32.001Z,7.60
2023-05-10T05:08:09.767Z,7.90
2023-05-10T05:11:48.306Z,8.40
2023-05-10T05:15:18.273Z,9.50
2023-05-10T05:18:46.357Z,8.20
2023-05-10T05:22:01.598Z,8.30
2023-05-10T05:25:49.495Z,7.60
2023-05-10T05:29:12.455Z,6.90
2023-05-10T05:32:58.837Z,7.30
2023-05-10T05:36:17.999Z,7.10
2023-05-10T05:39:14.267Z,7.40
2023-05-10T05:43:01.815Z,7.60
2023-05-10T05:46:48.238Z,7.30
2023-05-10T05:50:09.730Z,6.70
2023-05-10T05:53:37.295Z,7.50
2023-05-10T05:56:26.213Z,8.10
2023-05-10T05:59:46.252Z,7.00
2023-05-10T06:02:55.741Z,6.60
2023-05-10T06:06:26.580Z,6.60
2023-05-10T06:09:46.546Z,6.80
2023-05-10T06:13:23.980Z,6.80
2023-05-10T06:16:36.780Z,6.60
2023-05-10T06:20:05.216Z,6.50
2023-05-10T06:23:17.428Z,6.50
2023-05-10T06:27:03.768Z,6.50
2023-05-10T06:30:12.234Z,5.70
2023-05-10T06:33:39.494Z,5.80
2023-05-10T06:36:51.025Z,6.20
2023-05-10T06:40:38.518Z,6.40
2023-05-10T06:44:01.527Z,5.70
2023-05-10T06:47:49.130Z,5.80
2023-05-10T06:51:37.767Z,5.90
2023-05-10T06:55:02.770Z,5.80
2023-05-10T06:58:27.250Z,6.20
2023-05-10T07:02:15.756Z,5.50
2023-05-10T07:05:28.361Z,5.60
2023-05-10T07:09:06.260Z,5.20
2023-05-10T07:12:24.760Z,5.70
2023-05-10T07:15:49.147Z,5.40
2023-05-10T07:19:35.771Z,5.20
2023-05-10T07:23:23.744Z,5.10
2023-05-10T07:27:11.295Z,5.20
2023-05-10T07:30:58.868Z,4.70
2023-05-10T07:34:46.459Z,4.80
2023-05-10T07:38:34.101Z,4.70
2023-05-10T07:42:04.449Z,4.60
2023-05-10T07:45:53.362Z,4.90
2023-05-10T07:49:42.878Z,4.80
2023-05-10T07:53:30.375Z,4.60
2023-05-10T07:57:21.362Z,4.40
2023-05-10T08:01:09.837Z,5.90
2023-05-10T08:04:57.507Z,4.40
2023-05-10T08:08:48.950Z,4.70
2023-05-10T08:12:36.775Z,4.50
2023-05-10T08:16:24.624Z,4.00
2023-05-10T08:20:12.253Z,4.30
2023-05-10T08:24:01.646Z,4.50
2023-05-10T08:27:49.333Z,4.30
2023-05-10T08:31:37.311Z,3.90
2023-05-10T08:35:21.836Z,4.00
2023-05-10T08:39:22.859Z,3.90
2023-05-10T08:43:25.705Z,3.50
2023-05-10T08:47:14.587Z,3.70
2023-05-10T08:51:04.430Z,3.10
2023-05-10T08:54:52.839Z,4.00
2023-05-10T08:58:40.584Z,3.40
2023-05-10T09:02:31.073Z,2.60
2023-05-10T09:06:19.430Z,2.70
2023-05-10T09:10:07.696Z,2.50
2023-05-10T09:13:55.529Z,2.60
2023-05-10T09:17:46.453Z,2.80
2023-05-10T09:21:34.023Z,3.20
2023-05-10T09:25:27.002Z,2.70
2023-05-10T09:29:15.978Z,3.10
2023-05-10T09:32:59.730Z,3.60
2023-05-10T09:36:53.114Z,3.60
2023-05-10T09:41:00.960Z,3.10
2023-05-10T09:44:50.144Z,2.80
2023-05-10T09:48:38.100Z,3.30
2023-05-10T09:52:47.276Z,3.50
2023-05-10T09:56:41.720Z,3.40
2023-05-10T10:00:32.809Z,3.50
2023-05-10T10:04:23.682Z,2.70
2023-05-10T10:08:11.568Z,2.80
2023-05-10T10:11:59.589Z,3.60
2023-05-10T10:15:48.359Z,3.40
2023-05-10T10:19:38.645Z,3.40
2023-05-10T10:23:28.868Z,3.10
2023-05-10T10:27:21.250Z,2.80
2023-05-10T10:31:23.850Z,2.70
2023-05-10T10:35:30.021Z,2.70
2023-05-10T10:39:28.450Z,2.40
2023-05-10T10:43:30.248Z,2.90
2023-05-10T10:47:24.950Z,2.90
2023-05-10T10:51:14.800Z,2.70
2023-05-10T10:55:12.570Z,3.60
2023-05-10T10:59:06.507Z,2.80
2023-05-10T11:03:14.086Z,3.40
2023-05-10T11:07:09.494Z,2.50
2023-05-10T11:10:58.732Z,5.00
2023-05-10T11:14:49.219Z,2.80
2023-05-10T11:18:50.565Z,2.50
2023-05-10T11:22:46.648Z,3.30
2023-05-10T11:26:34.670Z,2.80
2023-05-10T11:30:23.009Z,3.20
2023-05-10T11:34:09.675Z,3.10
2023-05-10T11:37:48.557Z,2.60
2023-05-10T11:45:54.673Z,2.90
2023-05-10T11:49:20.082Z,3.80
2023-05-10T11:53:08.165Z,3.10
2023-05-10T11:56:52.740Z,2.80
2023-05-10T12:00:40.918Z,2.80
2023-05-10T12:04:22.661Z,2.60
2023-05-10T12:08:10.561Z,2.40
2023-05-10T12:12:05.465Z,2.50
2023-05-10T12:15:51.768Z,2.60
2023-05-10T12:19:01.120Z,2.50
2023-05-10T12:22:25.900Z,2.90
2023-05-10T12:26:14.038Z,2.70
2023-05-10T12:30:12.166Z,2.80
2023-05-10T12:33:52.185Z,2.80
2023-05-10T12:37:31.674Z,2.90
2023-05-10T12:41:04.579Z,3.40
2023-05-10T12:44:43.151Z,3.00
2023-05-10T12:48:17.239Z,3.30
2023-05-10T12:51:57.648Z,3.10
2023-05-10T12:55:20.922Z,3.30
2023-05-10T12:59:09.074Z,3.30
2023-05-10T13:02:57.597Z,3.40
2023-05-10T13:06:45.566Z,3.20
2023-05-10T13:10:24.384Z,3.10
2023-05-10T13:13:57.632Z,3.30
2023-05-10T13:17:45.586Z,2.80
2023-05-10T13:21:18.480Z,3.40
2023-05-10T13:24:58.770Z,3.20
2023-05-10T13:28:40.104Z,3.40
2023-05-10T13:32:20.736Z,3.00
2023-05-10T13:35:46.159Z,3.00
2023-05-10T13:39:31.299Z,3.30
2023-05-10T13:43:19.009Z,3.30
2023-05-10T13:47:00.086Z,3.10
2023-05-10T13:50:25.022Z,3.20
2023-05-10T13:54:13.654Z,4.10
2023-05-10T13:57:09.819Z,3.00
2023-05-10T14:00:27.962Z,3.30
2023-05-10T14:04:15.662Z,3.00
2023-05-10T14:07:57.136Z,3.10
2023-05-10T14:11:24.767Z,3.30
2023-05-10T14:15:08.406Z,3.00
2023-05-10T14:18:49.729Z,5.00
2023-05-10T14:22:21.578Z,3.50
2023-05-10T14:25:49.419Z,3.70
2023-05-10T14:29:12.439Z,9.20
2023-05-10T14:33:04.338Z,7.90
2023-05-10T14:36:28.809Z,3.70
2023-05-10T14:40:10.437Z,3.40
2023-05-10T14:43:57.009Z,3.70
2023-05-10T14:46:56.188Z,3.60
2023-05-10T14:50:07.052Z,3.80
2023-05-10T14:53:45.806Z,3.70
2023-05-10T14:57:34.011Z,3.60
2023-05-10T15:01:21.997Z,3.60
2023-05-10T15:05:03.320Z,3.50
2023-05-10T15:08:43.588Z,3.20
2023-05-10T15:12:31.304Z,3.50
2023-05-10T15:16:04.963Z,3.20
2023-05-10T15:19:27.765Z,3.30
2023-05-10T15:23:04.147Z,3.60
2023-05-10T15:25:51.021Z,3.20
2023-05-10T15:28:21.388Z,3.50
2023-05-10T15:31:45.797Z,3.70
2023-05-10T15:35:06.662Z,3.80
2023-05-10T15:38:38.209Z,3.40
2023-05-10T15:42:26.372Z,3.70
2023-05-10T15:46:06.145Z,3.60
2023-05-10T15:49:35.732Z,4.10
2023-05-10T15:52:22.328Z,3.80
2023-05-10T15:56:00.139Z,4.00
2023-05-10T15:59:48.034Z,3.70
2023-05-10T16:03:21.080Z,3.30
2023-05-10T16:06:52.024Z,4.10
2023-05-10T16:10:29.893Z,3.50
2023-05-10T16:14:17.952Z,4.10
2023-05-10T16:18:05.953Z,4.10
2023-05-10T16:21:42.957Z,4.80
2023-05-10T16:25:21.866Z,3.60
2023-05-10T16:28:53.130Z,3.30
2023-05-10T16:32:27.990Z,4.00
2023-05-10T16:36:08.718Z,5.80
2023-05-10T16:39:48.006Z,3.90
2023-05-10T16:43:36.359Z,4.20
2023-05-10T16:47:15.700Z,4.30
2023-05-10T16:51:03.952Z,4.00
2023-05-10T16:54:44.724Z,4.00
2023-05-10T16:58:15.001Z,3.50
2023-05-10T17:02:03.037Z,3.40
2023-05-10T17:05:51.768Z,3.80
2023-05-10T17:09:40.091Z,3.50
2023-05-10T17:13:20.224Z,4.80
2023-05-10T17:16:52.062Z,5.00
2023-05-10T17:20:40.107Z,4.00
2023-05-10T17:24:20.696Z,5.20
2023-05-10T17:28:08.715Z,5.20
2023-05-10T17:31:27.107Z,4.50
2023-05-10T17:35:10.334Z,4.50
2023-05-10T17:38:48.181Z,5.80
2023-05-10T17:42:22.086Z,4.50
2023-05-10T17:45:52.386Z,4.40
2023-05-10T17:48:52.749Z,4.50
2023-05-10T17:52:08.153Z,4.90
2023-05-10T17:55:44.823Z,5.40
2023-05-10T17:59:08.798Z,5.00
2023-05-10T18:02:43.546Z,4.60
2023-05-10T18:06:32.030Z,4.30
2023-05-10T18:09:39.471Z,5.20
2023-05-10T18:13:20.062Z,6.00
2023-05-10T18:16:41.087Z,4.40
2023-05-10T18:20:11.348Z,4.40
2023-05-10T18:23:59.685Z,4.40
2023-05-10T18:27:22.224Z,4.60
2023-05-10T18:30:40.980Z,4.40
2023-05-10T18:33:33.657Z,5.30
2023-05-10T18:36:48.186Z,5.30
2023-05-10T18:40:28.594Z,5.20
2023-05-10T18:43:41.952Z,5.80
2023-05-10T18:46:53.941Z,5.80
2023-05-10T18:50:17.197Z,6.10
2023-05-10T18:53:37.450Z,6.40
2023-05-10T18:56:56.696Z,6.30
2023-05-10T19:00:29.060Z,6.10
2023-05-10T19:04:19.698Z,6.60
2023-05-10T19:07:34.243Z,7.10
2023-05-10T19:10:46.588Z,6.30
2023-05-10T19:13:58.050Z,6.90
2023-05-10T19:16:48.062Z,6.00
2023-05-10T19:20:06.250Z,5.80
2023-05-10T19:23:39.585Z,5.70
2023-05-10T19:26:39.991Z,5.70
2023-05-10T19:29:50.474Z,5.60
2023-05-10T19:33:08.835Z,5.20
2023-05-10T19:36:48.588Z,4.60
2023-05-10T19:40:38.502Z,4.80
2023-05-10T19:44:09.682Z,5.10
2023-05-10T19:47:53.502Z,4.60
2023-05-10T19:51:11.120Z,4.70
2023-05-10T19:54:14.378Z,5.00
2023-05-10T19:57:32.256Z,5.60
2023-05-10T20:01:26.978Z,6.50
2023-05-10T20:04:44.250Z,9.90
2023-05-10T20:08:20.835Z,7.90
2023-05-10T20:11:55.041Z,5.40
2023-05-10T20:15:27.088Z,4.80
2023-05-10T20:18:50.031Z,4.80
2023-05-10T20:22:01.311Z,4.90
2023-05-10T20:24:59.257Z,5.00
2023-05-10T20:28:40.483Z,4.60
2023-05-10T20:32:30.215Z,5.10
2023-05-10T20:35:54.872Z,4.70
2023-05-10T20:39:43.255Z,4.90
2023-05-10T20:42:46.388Z,5.30
2023-05-10T20:46:24.852Z,5.40
2023-05-10T20:49:24.320Z,5.40
2023-05-10T20:53:00.480Z,5.20
2023-05-10T20:56:48.483Z,5.50
2023-05-10T21:00:29.622Z,5.30
2023-05-10T21:04:18.421Z,5.30
2023-05-10T21:07:57.361Z,5.00
2023-05-10T21:10:56.060Z,5.90
2023-05-10T21:14:18.862Z,5.40
2023-05-10T21:17:44.475Z,5.10
2023-05-10T21:20:59.173Z,5.60
2023-05-10T21:24:36.964Z,5.70
2023-05-10T21:28:16.376Z,5.90
2023-05-10T21:32:04.348Z,5.60
2023-05-10T21:35:20.146Z,6.00
2023-05-10T21:38:50.958Z,6.10
2023-05-10T21:42:38.707Z,5.60
2023-05-10T21:46:27.189Z,6.30
2023-05-10T21:50:04.002Z,5.60
2023-05-10T21:53:50.599Z,5.20
2023-05-10T21:57:38.738Z,5.70
2023-05-10T22:01:02.032Z,5.90
2023-05-10T22:03:51.087Z,6.10
2023-05-10T22:07:16.042Z,5.70
2023-05-10T22:11:03.749Z,5.90
2023-05-10T22:15:06.490Z,5.70
2023-05-10T22:18:57.556Z,5.70
2023-05-10T22:21:53.483Z,5.90
2023-05-10T22:25:18.054Z,5.90
2023-05-10T22:28:10.899Z,5.80
2023-05-10T22:31:48.896Z,6.10
2023-05-10T22:35:15.524Z,5.60
2023-05-10T22:38:12.088Z,5.80
2023-05-10T22:41:26.198Z,5.70
2023-05-10T22:44:57.431Z,5.80
2023-05-10T22:48:34.990Z,6.10
2023-05-10T22:51:56.106Z,6.80
2023-05-10T22:55:42.867Z,5.90
2023-05-10T22:59:21.012Z,5.60
2023-05-10T23:02:27.508Z,5.60
2023-05-10T23:06:15.429Z,6.00
2023-05-10T23:09:52.448Z,5.70
2023-05-10T23:13:40.141Z,6.00
2023-05-10T23:16:40.820Z,5.60
2023-05-10T23:20:20.289Z,5.30
2023-05-10T23:23:41.176Z,5.80
2023-05-10T23:26:56.216Z,6.00
2023-05-10T23:29:56.220Z,5.60
2023-05-10T23:33:27.517Z,6.10
2023-05-10T23:36:38.116Z,6.10
2023-05-10T23:40:18.730Z,6.00
2023-05-10T23:43:28.903Z,6.60
2023-05-10T23:46:27.122Z,6.30
2023-05-10T23:50:06.369Z,6.40
2023-05-10T23:53:37.310Z,6.40
2023-05-10T23:57:13.202Z,6.40
